N79 weather

Northumberland County Airport
Shamokin, Pennsylvania, United States

Public forecast

Using degrees Fahrenheit for public forecast. Weather courtesy of forecast.io.

Closest aviation weather report (METAR) to Northumberland County Airport

Closest report is Penn Valley Airport, 14.2 nm (26.3 km) W. Retrieved 2019/10/21 08:33 UTC (7 minutes ago):

KSEG 210833Z AUTO 00000KT 2 1/2SM BR OVC016 09/08 A3006 RMK AO2 VIS 1 3/4V4 T00890083

Closest aviation forecast (TAF) to Northumberland County Airport

Forecast is more than 12 hours old.

Closest forecast is Muir Army Air Field (Fort Indiantown Gap) Airport, 24.2 nm (44.7 km) S. Retrieved 2019/10/20 19:03 UTC (14 hours ago):

TAF TAF KMUI 201900Z 2019/2201 07006KT 8000 -SHRA BKN008 OVC015 QNH2996INS BECMG 2021/2022 04006KT 8000 -DZ BR BKN008 OVC015 QNH2997INS BECMG 2100/2101 34006KT 8000 BR BKN008 OVC015 QNH3000INS BECMG 2106/2107 35006KT 8000 BR FEW008 SCT015 QNH3003INS BECMG 2114/2115 36006KT 9999 NSW FEW015 SCT030 QNH3005INS BECMG 2116/2117 11006KT 9999 FEW030 QNH3007INS TX15/2119Z TN07/2111Z LAST NO AMDS AFT 2104 NEXT 2111